CheckWX is a tool to help pilots better visualize weather data.  It is not intended as a substitute for an official pre-flight weather briefing.

12:09:17 UTC

KSNY METAR
Sidney Municipal / Lloyd W Carr Field Airport
Sidney, Nebraska, USA
Current

1 hour ago

KSNY 041053Z AUTO 17012KT 10SM CLR M04/M09 A3002 RMK AO2 SLP186 T10391094
Observed
Apr-4 @ 10:53 UTC
Wind
  • 170° at 12 KTS
Visibility
Flight Rules
VFR
Cloud Levels
  • Clear skies
Temperature
-4°C / 25°F
Dewpoint
-9°C / 16°F
Humidity
69%
Altimeter
30.02" Hg
Pressure
1016.62 hPa
Previous

2 hours ago

KSNY 040953Z AUTO 17012KT 10SM FEW060 OVC120 M02/M09 A3003 RMK AO2 SLP186 T10221089
Observed
Apr-4 @ 09:53 UTC
Wind
  • 170° at 12 KTS
Visibility
Flight Rules
VFR
Cloud Levels
  • Few at 6,000' AGL
  • Overcast at 12,000' AGL
Temperature
-2°C / 28°F
Dewpoint
-9°C / 16°F
Humidity
59%
Altimeter
30.03" Hg
Pressure
1016.92 hPa
Previous

3 hours ago

KSNY 040853Z AUTO 17014G23KT 10SM OVC095 M02/M09 A3005 RMK AO2 PK WND 18026/0837 SLP196 T10221089 58012
Observed
Apr-4 @ 08:53 UTC
Wind
  • 170° at 14 KTS
  • Gusting to 23 KTS
Visibility
Flight Rules
VFR
Cloud Levels
  • Overcast at 9,500' AGL
Temperature
-2°C / 28°F
Dewpoint
-9°C / 16°F
Humidity
59%
Altimeter
30.05" Hg
Pressure
1017.62 hPa